Check out our new PWSWeather beta!
PWSweather.com
Personal Weather Stations
Station Observations
SEVANL01
SevillaES 41004

SevillaES 41004

Lat: 37.383633, Lon: -5.985787

Elevation: 19.685

Station Type: Davis Vantage Pro2

www.tiempoensevilla.es

High Low Average
Temperature 66.0°F18.9°C 47.4°F8.6°C 57.1°F13.9°C
Dew Point 52.3°F11.3°C 38.0°F3.3°C 42.0°F5.6°C
Winds 5.9 mph 9.5 kmh Calm Calm 3.0 mph SSW4.8 kmh SSW
Wind Gusts 13.0 mph20.9 kmh 1.0 mph1.6 kmh 6.0 mph9.7 kmh
Humidity 77% 39% 58%
Pressure 30.26 in1024.7 mb 30.12 in1020.0 mb -
Precipitation 0.00 in0.0 mm - -
Hour Temp Dew Point Humidity Winds Wind Gusts Pressure Precip Precip Rate Daily Precip Total
12:00 AM 55.7°F13.2°C 38.3°F3.5°C 52% 4.1 mph NNW6.6 kmh NNW 9.0 mph14.5 kmh 30.21 in1023.0 mb 0.00 in0.0 mm 0.00 in0.0 mm 0.00 in0.0 mm
12:20 AM 54.8°F12.7°C 38.0°F3.3°C 53% 4.7 mph N7.6 kmh N 9.0 mph14.5 kmh 30.20 in1022.7 mb 0.00 in0.0 mm 0.00 in0.0 mm 0.00 in0.0 mm
12:40 AM 54.5°F12.5°C 38.2°F3.4°C 54% 3.0 mph NNE4.8 kmh NNE 7.0 mph11.3 kmh 30.21 in1023.0 mb 0.00 in0.0 mm 0.00 in0.0 mm 0.00 in0.0 mm
01:00 AM 54.4°F12.4°C 38.6°F3.7°C 55% 2.6 mph N4.2 kmh N 4.0 mph6.4 kmh 30.21 in1023.0 mb 0.00 in0.0 mm 0.00 in0.0 mm 0.00 in0.0 mm
01:20 AM 54.0°F12.2°C 38.6°F3.7°C 56% 3.0 mph N4.8 kmh N 6.0 mph9.7 kmh 30.21 in1023.0 mb 0.00 in0.0 mm 0.00 in0.0 mm 0.00 in0.0 mm
01:40 AM 53.5°F11.9°C 39.1°F3.9°C 58% 3.6 mph N5.8 kmh N 5.0 mph8.0 kmh 30.21 in1023.0 mb 0.00 in0.0 mm 0.00 in0.0 mm 0.00 in0.0 mm
02:00 AM 53.3°F11.8°C 38.9°F3.8°C 58% 3.0 mph NNW4.8 kmh NNW 6.0 mph9.7 kmh 30.21 in1023.0 mb 0.00 in0.0 mm 0.00 in0.0 mm 0.00 in0.0 mm
02:20 AM 53.2°F11.8°C 39.2°F4.0°C 59% 3.0 mph NNW4.8 kmh NNW 5.0 mph8.0 kmh 30.20 in1022.7 mb 0.00 in0.0 mm 0.00 in0.0 mm 0.00 in0.0 mm
02:40 AM 53.1°F11.7°C 39.1°F3.9°C 59% 3.0 mph NNW4.8 kmh NNW 6.0 mph9.7 kmh 30.20 in1022.7 mb 0.00 in0.0 mm 0.00 in0.0 mm 0.00 in0.0 mm
03:00 AM 52.6°F11.4°C 39.5°F4.2°C 61% 3.0 mph NNE4.8 kmh NNE 5.0 mph8.0 kmh 30.20 in1022.7 mb 0.00 in0.0 mm 0.00 in0.0 mm 0.00 in0.0 mm
03:20 AM 52.1°F11.2°C 39.1°F3.9°C 61% 2.8 mph N4.5 kmh N 7.0 mph11.3 kmh 30.20 in1022.7 mb 0.00 in0.0 mm 0.00 in0.0 mm 0.00 in0.0 mm
03:40 AM 51.4°F10.8°C 39.2°F4.0°C 63% 4.0 mph N6.4 kmh N 7.0 mph11.3 kmh 30.20 in1022.7 mb 0.00 in0.0 mm 0.00 in0.0 mm 0.00 in0.0 mm
04:00 AM 50.9°F10.5°C 39.1°F3.9°C 64% 3.6 mph N5.8 kmh N 7.0 mph11.3 kmh 30.20 in1022.7 mb 0.00 in0.0 mm 0.00 in0.0 mm 0.00 in0.0 mm
04:20 AM 50.7°F10.4°C 39.0°F3.9°C 64% 3.0 mph N4.8 kmh N 4.0 mph6.4 kmh 30.20 in1022.7 mb 0.00 in0.0 mm 0.00 in0.0 mm 0.00 in0.0 mm
04:40 AM 50.6°F10.3°C 39.3°F4.1°C 65% 2.1 mph NNW3.4 kmh NNW 5.0 mph8.0 kmh 30.20 in1022.7 mb 0.00 in0.0 mm 0.00 in0.0 mm 0.00 in0.0 mm
05:00 AM 50.5°F10.3°C 39.2°F4.0°C 65% 1.8 mph N2.9 kmh N 4.0 mph6.4 kmh 30.19 in1022.4 mb 0.00 in0.0 mm 0.00 in0.0 mm 0.00 in0.0 mm
05:20 AM 50.4°F10.2°C 39.1°F3.9°C 65% 2.2 mph N3.5 kmh N 4.0 mph6.4 kmh 30.19 in1022.4 mb 0.00 in0.0 mm 0.00 in0.0 mm 0.00 in0.0 mm
05:40 AM 49.9°F9.9°C 39.4°F4.1°C 67% 3.0 mph NNE4.8 kmh NNE 5.0 mph8.0 kmh 30.20 in1022.7 mb 0.00 in0.0 mm 0.00 in0.0 mm 0.00 in0.0 mm
06:00 AM 49.6°F9.8°C 39.5°F4.2°C 68% 4.0 mph N6.4 kmh N 6.0 mph9.7 kmh 30.20 in1022.7 mb 0.00 in0.0 mm 0.00 in0.0 mm 0.00 in0.0 mm
06:20 AM 49.2°F9.6°C 39.1°F3.9°C 68% 3.0 mph N4.8 kmh N 5.0 mph8.0 kmh 30.20 in1022.7 mb 0.00 in0.0 mm 0.00 in0.0 mm 0.00 in0.0 mm
06:40 AM 48.4°F9.1°C 38.7°F3.7°C 69% 3.0 mph NNE4.8 kmh NNE 5.0 mph8.0 kmh 30.20 in1022.7 mb 0.00 in0.0 mm 0.00 in0.0 mm 0.00 in0.0 mm
07:00 AM 48.8°F9.3°C 39.1°F3.9°C 69% 1.0 mph NNE1.6 kmh NNE 3.0 mph4.8 kmh 30.21 in1023.0 mb 0.00 in0.0 mm 0.00 in0.0 mm 0.00 in0.0 mm
07:20 AM 49.1°F9.5°C 39.4°F4.1°C 69% 1.9 mph NNE3.1 kmh NNE 4.0 mph6.4 kmh 30.22 in1023.4 mb 0.00 in0.0 mm 0.00 in0.0 mm 0.00 in0.0 mm
07:40 AM 48.7°F9.3°C 39.4°F4.1°C 70% 2.0 mph NNW3.2 kmh NNW 3.0 mph4.8 kmh 30.22 in1023.4 mb 0.00 in0.0 mm 0.00 in0.0 mm 0.00 in0.0 mm
08:00 AM 48.4°F9.1°C 39.1°F3.9°C 70% 2.0 mph NNW3.2 kmh NNW 4.0 mph6.4 kmh 30.23 in1023.7 mb 0.00 in0.0 mm 0.00 in0.0 mm 0.00 in0.0 mm
08:20 AM 47.4°F8.6°C 38.5°F3.6°C 71% 2.1 mph N3.4 kmh N 5.0 mph8.0 kmh 30.25 in1024.4 mb 0.00 in0.0 mm 0.00 in0.0 mm 0.00 in0.0 mm
08:40 AM 47.7°F8.7°C 38.8°F3.8°C 71% 2.5 mph N4.0 kmh N 4.0 mph6.4 kmh 30.25 in1024.4 mb 0.00 in0.0 mm 0.00 in0.0 mm 0.00 in0.0 mm
09:00 AM 48.5°F9.2°C 39.5°F4.2°C 71% 1.0 mph NNW1.6 kmh NNW 3.0 mph4.8 kmh 30.26 in1024.7 mb 0.00 in0.0 mm 0.00 in0.0 mm 0.00 in0.0 mm
09:20 AM 51.1°F10.6°C 40.5°F4.7°C 67% 0.6 mph NNW1.0 kmh NNW 1.0 mph1.6 kmh 30.26 in1024.7 mb 0.00 in0.0 mm 0.00 in0.0 mm 0.00 in0.0 mm
09:40 AM 52.7°F11.5°C 40.9°F4.9°C 64% Calm Calm 2.0 mph3.2 kmh 30.25 in1024.4 mb 0.00 in0.0 mm 0.00 in0.0 mm 0.00 in0.0 mm
10:00 AM 53.6°F12.0°C 41.3°F5.2°C 63% 1.5 mph NE2.4 kmh NE 3.0 mph4.8 kmh 30.25 in1024.4 mb 0.00 in0.0 mm 0.00 in0.0 mm 0.00 in0.0 mm
10:20 AM 53.9°F12.2°C 40.8°F4.9°C 61% 2.0 mph N3.2 kmh N 4.0 mph6.4 kmh 30.25 in1024.4 mb 0.00 in0.0 mm 0.00 in0.0 mm 0.00 in0.0 mm
10:40 AM 54.8°F12.7°C 40.7°F4.8°C 59% 1.9 mph NNW3.1 kmh NNW 5.0 mph8.0 kmh 30.25 in1024.4 mb 0.00 in0.0 mm 0.00 in0.0 mm 0.00 in0.0 mm
11:00 AM 55.8°F13.2°C 41.2°F5.1°C 58% 2.8 mph NE4.5 kmh NE 5.0 mph8.0 kmh 30.26 in1024.7 mb 0.00 in0.0 mm 0.00 in0.0 mm 0.00 in0.0 mm
11:20 AM 57.2°F14.0°C 41.6°F5.3°C 56% 2.6 mph NE4.2 kmh NE 4.0 mph6.4 kmh 30.26 in1024.7 mb 0.00 in0.0 mm 0.00 in0.0 mm 0.00 in0.0 mm
11:40 AM 58.1°F14.5°C 41.0°F5.0°C 53% 2.0 mph NE3.2 kmh NE 5.0 mph8.0 kmh 30.26 in1024.7 mb 0.00 in0.0 mm 0.00 in0.0 mm 0.00 in0.0 mm
12:00 PM 58.6°F14.8°C 40.5°F4.7°C 51% 2.2 mph NNE3.5 kmh NNE 5.0 mph8.0 kmh 30.25 in1024.4 mb 0.00 in0.0 mm 0.00 in0.0 mm 0.00 in0.0 mm
12:20 PM 59.6°F15.3°C 40.9°F4.9°C 50% 2.0 mph NNE3.2 kmh NNE 6.0 mph9.7 kmh 30.24 in1024.0 mb 0.00 in0.0 mm 0.00 in0.0 mm 0.00 in0.0 mm
12:40 PM 60.1°F15.6°C 40.3°F4.6°C 48% 2.0 mph NW3.2 kmh NW 5.0 mph8.0 kmh 30.23 in1023.7 mb 0.00 in0.0 mm 0.00 in0.0 mm 0.00 in0.0 mm
01:00 PM 60.6°F15.9°C 40.2°F4.6°C 47% 2.0 mph WNW3.2 kmh WNW 4.0 mph6.4 kmh 30.23 in1023.7 mb 0.00 in0.0 mm 0.00 in0.0 mm 0.00 in0.0 mm
01:20 PM 61.4°F16.3°C 40.4°F4.7°C 46% 1.9 mph SW3.1 kmh SW 5.0 mph8.0 kmh 30.21 in1023.0 mb 0.00 in0.0 mm 0.00 in0.0 mm 0.00 in0.0 mm
01:40 PM 61.9°F16.6°C 40.3°F4.6°C 45% 1.6 mph NW2.6 kmh NW 6.0 mph9.7 kmh 30.20 in1022.7 mb 0.00 in0.0 mm 0.00 in0.0 mm 0.00 in0.0 mm
02:00 PM 62.8°F17.1°C 40.0°F4.4°C 43% 2.3 mph SW3.7 kmh SW 6.0 mph9.7 kmh 30.19 in1022.4 mb 0.00 in0.0 mm 0.00 in0.0 mm 0.00 in0.0 mm
02:20 PM 64.1°F17.8°C 39.3°F4.1°C 40% 2.5 mph WNW4.0 kmh WNW 8.0 mph12.9 kmh 30.19 in1022.4 mb 0.00 in0.0 mm 0.00 in0.0 mm 0.00 in0.0 mm
02:40 PM 64.6°F18.1°C 39.7°F4.3°C 40% 3.1 mph SW5.0 kmh SW 9.0 mph14.5 kmh 30.18 in1022.0 mb 0.00 in0.0 mm 0.00 in0.0 mm 0.00 in0.0 mm
03:00 PM 64.7°F18.2°C 40.4°F4.7°C 41% 4.4 mph WNW7.1 kmh WNW 11.0 mph17.7 kmh 30.17 in1021.7 mb 0.00 in0.0 mm 0.00 in0.0 mm 0.00 in0.0 mm
03:20 PM 64.5°F18.1°C 39.6°F4.2°C 40% 4.9 mph WSW7.9 kmh WSW 10.0 mph16.1 kmh 30.16 in1021.3 mb 0.00 in0.0 mm 0.00 in0.0 mm 0.00 in0.0 mm
03:40 PM 65.1°F18.4°C 39.5°F4.2°C 39% 3.3 mph WSW5.3 kmh WSW 9.0 mph14.5 kmh 30.16 in1021.3 mb 0.00 in0.0 mm 0.00 in0.0 mm 0.00 in0.0 mm
04:00 PM 66.0°F18.9°C 40.3°F4.6°C 39% 3.0 mph SW4.8 kmh SW 9.0 mph14.5 kmh 30.15 in1021.0 mb 0.00 in0.0 mm 0.00 in0.0 mm 0.00 in0.0 mm
04:20 PM 65.9°F18.8°C 42.1°F5.6°C 42% 4.5 mph SW7.2 kmh SW 10.0 mph16.1 kmh 30.15 in1021.0 mb 0.00 in0.0 mm 0.00 in0.0 mm 0.00 in0.0 mm
04:40 PM 65.6°F18.7°C 42.5°F5.8°C 43% 3.0 mph SSW4.8 kmh SSW 8.0 mph12.9 kmh 30.15 in1021.0 mb 0.00 in0.0 mm 0.00 in0.0 mm 0.00 in0.0 mm
05:00 PM 64.8°F18.2°C 42.9°F6.1°C 45% 4.3 mph S6.9 kmh S 10.0 mph16.1 kmh 30.14 in1020.7 mb 0.00 in0.0 mm 0.00 in0.0 mm 0.00 in0.0 mm
05:20 PM 64.5°F18.1°C 43.3°F6.3°C 46% 4.0 mph SSW6.4 kmh SSW 8.0 mph12.9 kmh 30.14 in1020.7 mb 0.00 in0.0 mm 0.00 in0.0 mm 0.00 in0.0 mm
05:40 PM 63.9°F17.7°C 43.3°F6.3°C 47% 4.6 mph SSW7.4 kmh SSW 9.0 mph14.5 kmh 30.14 in1020.7 mb 0.00 in0.0 mm 0.00 in0.0 mm 0.00 in0.0 mm
06:00 PM 63.7°F17.6°C 43.6°F6.4°C 48% 3.0 mph SW4.8 kmh SW 8.0 mph12.9 kmh 30.14 in1020.7 mb 0.00 in0.0 mm 0.00 in0.0 mm 0.00 in0.0 mm
06:20 PM 63.5°F17.5°C 44.0°F6.7°C 49% 3.0 mph SSW4.8 kmh SSW 6.0 mph9.7 kmh 30.14 in1020.7 mb 0.00 in0.0 mm 0.00 in0.0 mm 0.00 in0.0 mm
06:40 PM 63.3°F17.4°C 44.9°F7.2°C 51% 2.7 mph SSW4.3 kmh SSW 5.0 mph8.0 kmh 30.14 in1020.7 mb 0.00 in0.0 mm 0.00 in0.0 mm 0.00 in0.0 mm
07:00 PM 62.8°F17.1°C 44.9°F7.2°C 52% 1.1 mph S1.8 kmh S 2.0 mph3.2 kmh 30.15 in1021.0 mb 0.00 in0.0 mm 0.00 in0.0 mm 0.00 in0.0 mm
07:20 PM 63.0°F17.2°C 47.1°F8.4°C 56% 0.7 mph NW1.1 kmh NW 4.0 mph6.4 kmh 30.16 in1021.3 mb 0.00 in0.0 mm 0.00 in0.0 mm 0.00 in0.0 mm
07:40 PM 63.5°F17.5°C 47.5°F8.6°C 56% 2.9 mph WNW4.7 kmh WNW 9.0 mph14.5 kmh 30.16 in1021.3 mb 0.00 in0.0 mm 0.00 in0.0 mm 0.00 in0.0 mm
08:00 PM 63.4°F17.4°C 47.4°F8.6°C 56% 2.1 mph W3.4 kmh W 6.0 mph9.7 kmh 30.15 in1021.0 mb 0.00 in0.0 mm 0.00 in0.0 mm 0.00 in0.0 mm
08:20 PM 63.4°F17.4°C 47.9°F8.8°C 57% 3.3 mph WSW5.3 kmh WSW 8.0 mph12.9 kmh 30.15 in1021.0 mb 0.00 in0.0 mm 0.00 in0.0 mm 0.00 in0.0 mm
08:40 PM 62.2°F16.8°C 47.7°F8.7°C 59% 4.6 mph SW7.4 kmh SW 10.0 mph16.1 kmh 30.14 in1020.7 mb 0.00 in0.0 mm 0.00 in0.0 mm 0.00 in0.0 mm
09:00 PM 60.6°F15.9°C 48.4°F9.1°C 64% 5.8 mph WSW9.3 kmh WSW 11.0 mph17.7 kmh 30.14 in1020.7 mb 0.00 in0.0 mm 0.00 in0.0 mm 0.00 in0.0 mm
09:20 PM 60.1°F15.6°C 49.1°F9.5°C 67% 5.2 mph WSW8.4 kmh WSW 11.0 mph17.7 kmh 30.14 in1020.7 mb 0.00 in0.0 mm 0.00 in0.0 mm 0.00 in0.0 mm
09:40 PM 59.9°F15.5°C 50.1°F10.1°C 70% 5.5 mph WSW8.9 kmh WSW 13.0 mph20.9 kmh 30.14 in1020.7 mb 0.00 in0.0 mm 0.00 in0.0 mm 0.00 in0.0 mm
10:00 PM 59.4°F15.2°C 50.0°F10.0°C 71% 5.9 mph SW9.5 kmh SW 9.0 mph14.5 kmh 30.14 in1020.7 mb 0.00 in0.0 mm 0.00 in0.0 mm 0.00 in0.0 mm
10:20 PM 59.1°F15.1°C 50.5°F10.3°C 73% 4.0 mph SW6.4 kmh SW 8.0 mph12.9 kmh 30.14 in1020.7 mb 0.00 in0.0 mm 0.00 in0.0 mm 0.00 in0.0 mm
10:40 PM 59.1°F15.1°C 51.2°F10.7°C 75% 5.0 mph SW8.0 kmh SW 10.0 mph16.1 kmh 30.14 in1020.7 mb 0.00 in0.0 mm 0.00 in0.0 mm 0.00 in0.0 mm
11:00 PM 59.1°F15.1°C 51.5°F10.8°C 76% 4.1 mph SW6.6 kmh SW 8.0 mph12.9 kmh 30.14 in1020.7 mb 0.00 in0.0 mm 0.00 in0.0 mm 0.00 in0.0 mm
11:20 PM 59.2°F15.1°C 52.0°F11.1°C 77% 3.0 mph SW4.8 kmh SW 7.0 mph11.3 kmh 30.13 in1020.3 mb 0.00 in0.0 mm 0.00 in0.0 mm 0.00 in0.0 mm
11:40 PM 59.5°F15.3°C 52.3°F11.3°C 77% 4.6 mph SW7.4 kmh SW 9.0 mph14.5 kmh 30.12 in1020.0 mb 0.00 in0.0 mm 0.00 in0.0 mm 0.00 in0.0 mm